sensor_id;sensor_type;location;lat;lon;timestamp;P1;durP1;ratioP1;P2;durP2;ratioP2
54517;SDS011;40423;53.176;6.002;2023-03-14T00:01:53;24.15;;;5.40;;
54517;SDS011;40423;53.176;6.002;2023-03-14T00:04:18;28.13;;;5.55;;
54517;SDS011;40423;53.176;6.002;2023-03-14T00:06:44;28.92;;;5.00;;
54517;SDS011;40423;53.176;6.002;2023-03-14T00:09:12;24.55;;;5.38;;
54517;SDS011;40423;53.176;6.002;2023-03-14T00:11:38;20.75;;;4.65;;
54517;SDS011;40423;53.176;6.002;2023-03-14T00:14:04;23.63;;;4.20;;
54517;SDS011;40423;53.176;6.002;2023-03-14T00:16:29;22.35;;;5.18;;
54517;SDS011;40423;53.176;6.002;2023-03-14T00:18:55;24.40;;;4.40;;
54517;SDS011;40423;53.176;6.002;2023-03-14T00:21:23;15.85;;;4.03;;
54517;SDS011;40423;53.176;6.002;2023-03-14T00:24:01;27.20;;;4.82;;
54517;SDS011;40423;53.176;6.002;2023-03-14T00:26:26;22.08;;;5.03;;
54517;SDS011;40423;53.176;6.002;2023-03-14T00:28:53;20.45;;;4.40;;
54517;SDS011;40423;53.176;6.002;2023-03-14T00:31:19;18.05;;;4.15;;
54517;SDS011;40423;53.176;6.002;2023-03-14T00:33:45;24.25;;;4.93;;
54517;SDS011;40423;53.176;6.002;2023-03-14T00:36:14;18.45;;;4.28;;
54517;SDS011;40423;53.176;6.002;2023-03-14T00:38:42;20.20;;;4.47;;
54517;SDS011;40423;53.176;6.002;2023-03-14T00:41:09;22.98;;;4.57;;
54517;SDS011;40423;53.176;6.002;2023-03-14T00:43:38;24.45;;;5.32;;
54517;SDS011;40423;53.176;6.002;2023-03-14T00:46:03;18.15;;;4.35;;
54517;SDS011;40423;53.176;6.002;2023-03-14T00:48:29;21.67;;;4.13;;
54517;SDS011;40423;53.176;6.002;2023-03-14T00:50:55;25.75;;;4.78;;
54517;SDS011;40423;53.176;6.002;2023-03-14T00:53:21;20.85;;;5.88;;
54517;SDS011;40423;53.176;6.002;2023-03-14T00:55:47;17.33;;;4.45;;
54517;SDS011;40423;53.176;6.002;2023-03-14T00:58:14;19.88;;;4.03;;
54517;SDS011;40423;53.176;6.002;2023-03-14T01:00:41;21.98;;;4.35;;
54517;SDS011;40423;53.176;6.002;2023-03-14T01:03:08;23.10;;;5.00;;
54517;SDS011;40423;53.176;6.002;2023-03-14T01:05:34;19.98;;;3.97;;
54517;SDS011;40423;53.176;6.002;2023-03-14T01:08:00;19.17;;;4.43;;
54517;SDS011;40423;53.176;6.002;2023-03-14T01:10:27;20.63;;;4.32;;
54517;SDS011;40423;53.176;6.002;2023-03-14T01:12:53;17.60;;;4.13;;
54517;SDS011;40423;53.176;6.002;2023-03-14T01:15:19;19.50;;;4.65;;
54517;SDS011;40423;53.176;6.002;2023-03-14T01:17:45;18.90;;;4.47;;
54517;SDS011;40423;53.176;6.002;2023-03-14T01:20:12;14.93;;;3.75;;
54517;SDS011;40423;53.176;6.002;2023-03-14T01:22:39;20.08;;;4.50;;
54517;SDS011;40423;53.176;6.002;2023-03-14T01:25:06;19.65;;;4.45;;
54517;SDS011;40423;53.176;6.002;2023-03-14T01:27:32;13.68;;;3.45;;
54517;SDS011;40423;53.176;6.002;2023-03-14T01:29:58;22.13;;;3.90;;
54517;SDS011;40423;53.176;6.002;2023-03-14T01:32:24;16.77;;;3.30;;
54517;SDS011;40423;53.176;6.002;2023-03-14T01:34:50;18.83;;;3.88;;
54517;SDS011;40423;53.176;6.002;2023-03-14T01:37:16;17.65;;;3.70;;
54517;SDS011;40423;53.176;6.002;2023-03-14T01:39:42;16.98;;;3.00;;
54517;SDS011;40423;53.176;6.002;2023-03-14T01:42:08;17.27;;;4.03;;
54517;SDS011;40423;53.176;6.002;2023-03-14T01:47:20;20.60;;;3.67;;
54517;SDS011;40423;53.176;6.002;2023-03-14T01:49:46;19.20;;;3.72;;
54517;SDS011;40423;53.176;6.002;2023-03-14T01:55:04;19.88;;;3.50;;
54517;SDS011;40423;53.176;6.002;2023-03-14T01:57:32;19.15;;;3.03;;
54517;SDS011;40423;53.176;6.002;2023-03-14T02:00:11;18.00;;;4.45;;
54517;SDS011;40423;53.176;6.002;2023-03-14T02:02:40;21.52;;;3.92;;
54517;SDS011;40423;53.176;6.002;2023-03-14T02:05:09;25.27;;;3.55;;
54517;SDS011;40423;53.176;6.002;2023-03-14T02:07:50;18.83;;;3.38;;
54517;SDS011;40423;53.176;6.002;2023-03-14T02:10:17;20.25;;;3.60;;
54517;SDS011;40423;53.176;6.002;2023-03-14T02:12:46;19.60;;;3.58;;
54517;SDS011;40423;53.176;6.002;2023-03-14T02:15:13;18.55;;;3.60;;
54517;SDS011;40423;53.176;6.002;2023-03-14T02:17:42;16.02;;;3.67;;
54517;SDS011;40423;53.176;6.002;2023-03-14T02:22:37;19.98;;;3.90;;
54517;SDS011;40423;53.176;6.002;2023-03-14T02:25:09;14.32;;;3.13;;
54517;SDS011;40423;53.176;6.002;2023-03-14T02:27:40;18.08;;;4.65;;
54517;SDS011;40423;53.176;6.002;2023-03-14T02:30:16;17.88;;;3.20;;
54517;SDS011;40423;53.176;6.002;2023-03-14T02:32:46;19.75;;;3.15;;
54517;SDS011;40423;53.176;6.002;2023-03-14T02:35:16;13.30;;;2.75;;
54517;SDS011;40423;53.176;6.002;2023-03-14T02:37:47;11.80;;;3.28;;
54517;SDS011;40423;53.176;6.002;2023-03-14T02:40:25;15.25;;;3.67;;
54517;SDS011;40423;53.176;6.002;2023-03-14T02:42:51;16.77;;;3.42;;
54517;SDS011;40423;53.176;6.002;2023-03-14T02:47:44;14.55;;;2.67;;
54517;SDS011;40423;53.176;6.002;2023-03-14T02:50:17;18.15;;;3.08;;
54517;SDS011;40423;53.176;6.002;2023-03-14T02:52:46;17.13;;;3.30;;
54517;SDS011;40423;53.176;6.002;2023-03-14T02:55:11;21.55;;;4.13;;
54517;SDS011;40423;53.176;6.002;2023-03-14T02:57:37;18.73;;;4.13;;
54517;SDS011;40423;53.176;6.002;2023-03-14T03:00:03;15.95;;;3.95;;
54517;SDS011;40423;53.176;6.002;2023-03-14T03:02:30;19.48;;;3.67;;
54517;SDS011;40423;53.176;6.002;2023-03-14T03:04:56;22.80;;;4.32;;
54517;SDS011;40423;53.176;6.002;2023-03-14T03:07:22;17.55;;;3.58;;
54517;SDS011;40423;53.176;6.002;2023-03-14T03:09:47;21.05;;;3.72;;
54517;SDS011;40423;53.176;6.002;2023-03-14T03:12:13;22.83;;;4.75;;
54517;SDS011;40423;53.176;6.002;2023-03-14T03:14:39;21.23;;;3.70;;
54517;SDS011;40423;53.176;6.002;2023-03-14T03:17:04;20.50;;;3.55;;
54517;SDS011;40423;53.176;6.002;2023-03-14T03:19:31;22.25;;;4.10;;
54517;SDS011;40423;53.176;6.002;2023-03-14T03:21:58;23.38;;;4.10;;
54517;SDS011;40423;53.176;6.002;2023-03-14T03:24:25;20.27;;;4.00;;
54517;SDS011;40423;53.176;6.002;2023-03-14T03:26:51;17.98;;;3.78;;
54517;SDS011;40423;53.176;6.002;2023-03-14T03:29:16;19.40;;;3.20;;
54517;SDS011;40423;53.176;6.002;2023-03-14T03:31:42;25.73;;;3.83;;
54517;SDS011;40423;53.176;6.002;2023-03-14T03:34:10;23.05;;;4.38;;
54517;SDS011;40423;53.176;6.002;2023-03-14T03:36:39;23.52;;;3.50;;
54517;SDS011;40423;53.176;6.002;2023-03-14T03:39:05;23.63;;;4.35;;
54517;SDS011;40423;53.176;6.002;2023-03-14T03:41:31;28.77;;;4.32;;
54517;SDS011;40423;53.176;6.002;2023-03-14T03:43:58;24.90;;;3.90;;
54517;SDS011;40423;53.176;6.002;2023-03-14T03:46:24;23.48;;;5.22;;
54517;SDS011;40423;53.176;6.002;2023-03-14T03:48:56;23.25;;;3.83;;
54517;SDS011;40423;53.176;6.002;2023-03-14T03:51:23;30.15;;;5.35;;
54517;SDS011;40423;53.176;6.002;2023-03-14T03:53:49;17.60;;;4.47;;
54517;SDS011;40423;53.176;6.002;2023-03-14T03:56:15;27.65;;;4.78;;
54517;SDS011;40423;53.176;6.002;2023-03-14T03:58:41;24.45;;;5.38;;
54517;SDS011;40423;53.176;6.002;2023-03-14T04:01:07;28.50;;;4.80;;
54517;SDS011;40423;53.176;6.002;2023-03-14T04:03:34;29.35;;;4.82;;
54517;SDS011;40423;53.176;6.002;2023-03-14T04:06:04;31.77;;;5.25;;
54517;SDS011;40423;53.176;6.002;2023-03-14T04:08:32;38.45;;;6.13;;
54517;SDS011;40423;53.176;6.002;2023-03-14T04:10:58;27.63;;;5.68;;
54517;SDS011;40423;53.176;6.002;2023-03-14T04:13:25;27.02;;;6.15;;
54517;SDS011;40423;53.176;6.002;2023-03-14T04:15:51;29.45;;;5.55;;
54517;SDS011;40423;53.176;6.002;2023-03-14T04:18:18;26.75;;;5.18;;
54517;SDS011;40423;53.176;6.002;2023-03-14T04:20:44;26.75;;;5.55;;
54517;SDS011;40423;53.176;6.002;2023-03-14T04:23:09;27.33;;;4.72;;
54517;SDS011;40423;53.176;6.002;2023-03-14T04:25:35;30.48;;;5.88;;
54517;SDS011;40423;53.176;6.002;2023-03-14T04:28:01;33.50;;;4.85;;
54517;SDS011;40423;53.176;6.002;2023-03-14T04:30:29;24.15;;;5.05;;
54517;SDS011;40423;53.176;6.002;2023-03-14T04:32:54;24.73;;;4.95;;
54517;SDS011;40423;53.176;6.002;2023-03-14T04:35:20;29.13;;;4.55;;
54517;SDS011;40423;53.176;6.002;2023-03-14T04:37:46;29.45;;;5.60;;
54517;SDS011;40423;53.176;6.002;2023-03-14T04:40:14;26.52;;;4.82;;
54517;SDS011;40423;53.176;6.002;2023-03-14T04:42:40;25.50;;;4.78;;
54517;SDS011;40423;53.176;6.002;2023-03-14T04:45:06;33.35;;;4.82;;
54517;SDS011;40423;53.176;6.002;2023-03-14T04:47:33;25.33;;;6.32;;
54517;SDS011;40423;53.176;6.002;2023-03-14T04:49:59;20.08;;;4.00;;
54517;SDS011;40423;53.176;6.002;2023-03-14T04:52:25;20.02;;;4.53;;
54517;SDS011;40423;53.176;6.002;2023-03-14T04:54:52;25.85;;;4.65;;
54517;SDS011;40423;53.176;6.002;2023-03-14T04:57:17;25.33;;;5.30;;
54517;SDS011;40423;53.176;6.002;2023-03-14T04:59:43;27.08;;;5.30;;
54517;SDS011;40423;53.176;6.002;2023-03-14T05:02:09;23.20;;;6.50;;
54517;SDS011;40423;53.176;6.002;2023-03-14T05:04:34;24.48;;;5.38;;
54517;SDS011;40423;53.176;6.002;2023-03-14T05:07:00;17.88;;;5.00;;
54517;SDS011;40423;53.176;6.002;2023-03-14T05:09:26;21.70;;;5.35;;
54517;SDS011;40423;53.176;6.002;2023-03-14T05:11:52;13.05;;;4.78;;
54517;SDS011;40423;53.176;6.002;2023-03-14T05:14:18;20.08;;;4.45;;
54517;SDS011;40423;53.176;6.002;2023-03-14T05:16:43;16.58;;;4.32;;
54517;SDS011;40423;53.176;6.002;2023-03-14T05:19:10;38.70;;;6.95;;
54517;SDS011;40423;53.176;6.002;2023-03-14T05:21:36;18.67;;;4.55;;
54517;SDS011;40423;53.176;6.002;2023-03-14T05:24:02;14.48;;;4.88;;
54517;SDS011;40423;53.176;6.002;2023-03-14T05:26:28;14.18;;;4.07;;
54517;SDS011;40423;53.176;6.002;2023-03-14T05:28:54;9.05;;;3.53;;
54517;SDS011;40423;53.176;6.002;2023-03-14T05:31:20;14.52;;;3.83;;
54517;SDS011;40423;53.176;6.002;2023-03-14T05:33:46;19.10;;;5.05;;
54517;SDS011;40423;53.176;6.002;2023-03-14T05:36:11;10.63;;;3.28;;
54517;SDS011;40423;53.176;6.002;2023-03-14T05:38:37;9.80;;;4.38;;
54517;SDS011;40423;53.176;6.002;2023-03-14T05:41:03;13.18;;;4.93;;
54517;SDS011;40423;53.176;6.002;2023-03-14T05:43:29;15.13;;;4.80;;
54517;SDS011;40423;53.176;6.002;2023-03-14T05:45:55;14.82;;;4.20;;
54517;SDS011;40423;53.176;6.002;2023-03-14T05:48:20;17.95;;;4.90;;
54517;SDS011;40423;53.176;6.002;2023-03-14T05:50:47;16.45;;;4.68;;
54517;SDS011;40423;53.176;6.002;2023-03-14T05:53:13;16.10;;;4.35;;
54517;SDS011;40423;53.176;6.002;2023-03-14T05:55:39;14.27;;;4.63;;
54517;SDS011;40423;53.176;6.002;2023-03-14T05:58:05;13.68;;;4.60;;
54517;SDS011;40423;53.176;6.002;2023-03-14T06:00:31;13.75;;;5.45;;
54517;SDS011;40423;53.176;6.002;2023-03-14T06:02:57;13.02;;;2.28;;
54517;SDS011;40423;53.176;6.002;2023-03-14T06:05:23;10.15;;;1.75;;
54517;SDS011;40423;53.176;6.002;2023-03-14T06:07:49;7.50;;;1.52;;
54517;SDS011;40423;53.176;6.002;2023-03-14T06:12:52;10.68;;;1.60;;
54517;SDS011;40423;53.176;6.002;2023-03-14T06:15:21;17.85;;;2.50;;
54517;SDS011;40423;53.176;6.002;2023-03-14T06:18:02;14.95;;;2.30;;
54517;SDS011;40423;53.176;6.002;2023-03-14T06:20:49;14.05;;;3.33;;
54517;SDS011;40423;53.176;6.002;2023-03-14T06:23:31;16.55;;;2.65;;
54517;SDS011;40423;53.176;6.002;2023-03-14T06:26:17;20.80;;;3.78;;
54517;SDS011;40423;53.176;6.002;2023-03-14T06:29:22;20.10;;;3.47;;
54517;SDS011;40423;53.176;6.002;2023-03-14T06:31:59;13.18;;;1.92;;
54517;SDS011;40423;53.176;6.002;2023-03-14T06:34:25;18.85;;;2.90;;
54517;SDS011;40423;53.176;6.002;2023-03-14T06:36:51;12.00;;;1.63;;
54517;SDS011;40423;53.176;6.002;2023-03-14T06:39:16;10.95;;;1.92;;
54517;SDS011;40423;53.176;6.002;2023-03-14T06:41:42;7.53;;;1.45;;
54517;SDS011;40423;53.176;6.002;2023-03-14T06:44:08;13.43;;;1.98;;
54517;SDS011;40423;53.176;6.002;2023-03-14T06:46:33;8.38;;;1.92;;
54517;SDS011;40423;53.176;6.002;2023-03-14T06:48:59;7.20;;;1.48;;
54517;SDS011;40423;53.176;6.002;2023-03-14T06:51:25;10.60;;;1.58;;
54517;SDS011;40423;53.176;6.002;2023-03-14T06:53:50;4.30;;;1.08;;
54517;SDS011;40423;53.176;6.002;2023-03-14T06:56:16;9.48;;;2.22;;
54517;SDS011;40423;53.176;6.002;2023-03-14T06:58:42;4.78;;;1.10;;
54517;SDS011;40423;53.176;6.002;2023-03-14T07:01:17;8.85;;;1.35;;
54517;SDS011;40423;53.176;6.002;2023-03-14T07:03:50;12.25;;;1.88;;
54517;SDS011;40423;53.176;6.002;2023-03-14T07:06:16;5.88;;;0.82;;
54517;SDS011;40423;53.176;6.002;2023-03-14T07:08:42;7.72;;;1.50;;
54517;SDS011;40423;53.176;6.002;2023-03-14T07:11:08;9.10;;;1.17;;
54517;SDS011;40423;53.176;6.002;2023-03-14T07:13:36;8.75;;;1.23;;
54517;SDS011;40423;53.176;6.002;2023-03-14T07:16:02;7.57;;;1.27;;
54517;SDS011;40423;53.176;6.002;2023-03-14T07:18:28;5.22;;;1.13;;
54517;SDS011;40423;53.176;6.002;2023-03-14T07:20:54;9.02;;;1.17;;
54517;SDS011;40423;53.176;6.002;2023-03-14T07:23:20;6.72;;;1.73;;
54517;SDS011;40423;53.176;6.002;2023-03-14T07:25:45;7.32;;;1.77;;
54517;SDS011;40423;53.176;6.002;2023-03-14T07:28:11;4.43;;;0.88;;
54517;SDS011;40423;53.176;6.002;2023-03-14T07:30:37;5.25;;;1.25;;
54517;SDS011;40423;53.176;6.002;2023-03-14T07:33:02;4.18;;;0.93;;
54517;SDS011;40423;53.176;6.002;2023-03-14T07:35:28;6.78;;;1.10;;
54517;SDS011;40423;53.176;6.002;2023-03-14T07:37:54;9.27;;;1.48;;
54517;SDS011;40423;53.176;6.002;2023-03-14T07:40:20;6.72;;;1.42;;
54517;SDS011;40423;53.176;6.002;2023-03-14T07:42:45;6.88;;;1.10;;
54517;SDS011;40423;53.176;6.002;2023-03-14T07:45:11;6.78;;;1.40;;
54517;SDS011;40423;53.176;6.002;2023-03-14T07:47:37;6.78;;;0.98;;
54517;SDS011;40423;53.176;6.002;2023-03-14T07:50:04;9.57;;;1.50;;
54517;SDS011;40423;53.176;6.002;2023-03-14T07:52:30;8.50;;;1.45;;
54517;SDS011;40423;53.176;6.002;2023-03-14T07:54:56;6.07;;;1.20;;
54517;SDS011;40423;53.176;6.002;2023-03-14T07:57:22;7.82;;;1.80;;
54517;SDS011;40423;53.176;6.002;2023-03-14T07:59:49;10.57;;;1.33;;
54517;SDS011;40423;53.176;6.002;2023-03-14T08:02:15;9.13;;;1.10;;
54517;SDS011;40423;53.176;6.002;2023-03-14T08:04:41;8.10;;;1.98;;
54517;SDS011;40423;53.176;6.002;2023-03-14T08:07:06;10.93;;;1.98;;
54517;SDS011;40423;53.176;6.002;2023-03-14T08:09:32;12.73;;;2.85;;
54517;SDS011;40423;53.176;6.002;2023-03-14T08:11:58;7.32;;;1.40;;
54517;SDS011;40423;53.176;6.002;2023-03-14T08:14:24;10.77;;;1.70;;
54517;SDS011;40423;53.176;6.002;2023-03-14T08:16:50;11.75;;;2.08;;
54517;SDS011;40423;53.176;6.002;2023-03-14T08:19:16;11.15;;;1.85;;
54517;SDS011;40423;53.176;6.002;2023-03-14T08:21:42;26.60;;;4.15;;
54517;SDS011;40423;53.176;6.002;2023-03-14T08:24:08;15.60;;;2.53;;
54517;SDS011;40423;53.176;6.002;2023-03-14T08:26:34;28.98;;;4.20;;
54517;SDS011;40423;53.176;6.002;2023-03-14T08:28:59;18.75;;;3.45;;
54517;SDS011;40423;53.176;6.002;2023-03-14T08:31:25;16.77;;;3.38;;
54517;SDS011;40423;53.176;6.002;2023-03-14T08:33:51;18.13;;;2.70;;
54517;SDS011;40423;53.176;6.002;2023-03-14T08:36:18;15.68;;;3.83;;
54517;SDS011;40423;53.176;6.002;2023-03-14T08:38:44;21.70;;;3.05;;
54517;SDS011;40423;53.176;6.002;2023-03-14T08:41:11;14.98;;;3.00;;
54517;SDS011;40423;53.176;6.002;2023-03-14T08:43:36;16.90;;;3.72;;
54517;SDS011;40423;53.176;6.002;2023-03-14T08:46:02;16.13;;;2.83;;
54517;SDS011;40423;53.176;6.002;2023-03-14T08:48:29;18.75;;;4.25;;
54517;SDS011;40423;53.176;6.002;2023-03-14T08:50:56;14.88;;;2.88;;
54517;SDS011;40423;53.176;6.002;2023-03-14T08:53:22;17.50;;;3.78;;
54517;SDS011;40423;53.176;6.002;2023-03-14T08:55:54;18.08;;;2.80;;
54517;SDS011;40423;53.176;6.002;2023-03-14T08:58:20;27.83;;;3.47;;
54517;SDS011;40423;53.176;6.002;2023-03-14T09:00:47;25.17;;;3.28;;
54517;SDS011;40423;53.176;6.002;2023-03-14T09:03:13;18.85;;;2.85;;
54517;SDS011;40423;53.176;6.002;2023-03-14T09:05:40;22.33;;;4.05;;
54517;SDS011;40423;53.176;6.002;2023-03-14T09:08:05;20.05;;;4.15;;
54517;SDS011;40423;53.176;6.002;2023-03-14T09:10:31;20.60;;;4.82;;
54517;SDS011;40423;53.176;6.002;2023-03-14T09:12:57;20.45;;;4.15;;
54517;SDS011;40423;53.176;6.002;2023-03-14T09:15:23;21.42;;;3.35;;
54517;SDS011;40423;53.176;6.002;2023-03-14T09:17:49;20.05;;;4.43;;
54517;SDS011;40423;53.176;6.002;2023-03-14T09:20:15;27.20;;;4.43;;
54517;SDS011;40423;53.176;6.002;2023-03-14T09:22:41;20.73;;;3.17;;
54517;SDS011;40423;53.176;6.002;2023-03-14T09:25:07;21.13;;;3.25;;
54517;SDS011;40423;53.176;6.002;2023-03-14T09:27:33;23.88;;;4.82;;
54517;SDS011;40423;53.176;6.002;2023-03-14T09:29:58;27.13;;;3.80;;
54517;SDS011;40423;53.176;6.002;2023-03-14T09:32:24;23.67;;;4.28;;
54517;SDS011;40423;53.176;6.002;2023-03-14T09:34:50;29.50;;;4.80;;
54517;SDS011;40423;53.176;6.002;2023-03-14T09:37:16;29.83;;;4.43;;
54517;SDS011;40423;53.176;6.002;2023-03-14T09:39:42;22.88;;;3.28;;
54517;SDS011;40423;53.176;6.002;2023-03-14T09:42:10;25.65;;;5.05;;
54517;SDS011;40423;53.176;6.002;2023-03-14T09:44:42;16.83;;;2.63;;
54517;SDS011;40423;53.176;6.002;2023-03-14T09:47:19;21.70;;;4.55;;
54517;SDS011;40423;53.176;6.002;2023-03-14T09:49:45;20.90;;;3.75;;
54517;SDS011;40423;53.176;6.002;2023-03-14T09:52:13;22.90;;;4.53;;
54517;SDS011;40423;53.176;6.002;2023-03-14T09:54:49;18.77;;;3.17;;
54517;SDS011;40423;53.176;6.002;2023-03-14T09:57:18;25.30;;;3.20;;
54517;SDS011;40423;53.176;6.002;2023-03-14T09:59:45;22.75;;;3.65;;
54517;SDS011;40423;53.176;6.002;2023-03-14T10:02:23;19.48;;;2.97;;
54517;SDS011;40423;53.176;6.002;2023-03-14T10:04:52;17.00;;;2.90;;
54517;SDS011;40423;53.176;6.002;2023-03-14T10:07:29;14.65;;;4.65;;
54517;SDS011;40423;53.176;6.002;2023-03-14T10:09:57;17.65;;;3.10;;
54517;SDS011;40423;53.176;6.002;2023-03-14T10:12:30;15.82;;;3.20;;
54517;SDS011;40423;53.176;6.002;2023-03-14T10:14:57;16.90;;;2.60;;
54517;SDS011;40423;53.176;6.002;2023-03-14T10:17:29;16.98;;;3.33;;
54517;SDS011;40423;53.176;6.002;2023-03-14T10:20:04;13.80;;;2.72;;
54517;SDS011;40423;53.176;6.002;2023-03-14T10:22:31;20.27;;;3.72;;
54517;SDS011;40423;53.176;6.002;2023-03-14T10:25:06;13.60;;;3.03;;
54517;SDS011;40423;53.176;6.002;2023-03-14T10:27:59;14.52;;;2.33;;
54517;SDS011;40423;53.176;6.002;2023-03-14T10:33:37;20.23;;;2.45;;
54517;SDS011;40423;53.176;6.002;2023-03-14T10:38:28;17.67;;;2.58;;
54517;SDS011;40423;53.176;6.002;2023-03-14T10:40:56;11.60;;;2.35;;
54517;SDS011;40423;53.176;6.002;2023-03-14T10:43:27;10.43;;;2.28;;
54517;SDS011;40423;53.176;6.002;2023-03-14T10:45:58;7.20;;;1.73;;
54517;SDS011;40423;53.176;6.002;2023-03-14T10:48:37;10.88;;;2.20;;
54517;SDS011;40423;53.176;6.002;2023-03-14T10:56:07;14.10;;;3.17;;
54517;SDS011;40423;53.176;6.002;2023-03-14T10:58:46;15.43;;;2.97;;
54517;SDS011;40423;53.176;6.002;2023-03-14T11:09:38;8.85;;;2.20;;
54517;SDS011;40423;53.176;6.002;2023-03-14T11:13:11;11.50;;;1.90;;
54517;SDS011;40423;53.176;6.002;2023-03-14T11:15:22;7.57;;;2.30;;
54517;SDS011;40423;53.176;6.002;2023-03-14T11:29:25;9.50;;;1.42;;
54517;SDS011;40423;53.176;6.002;2023-03-14T11:32:01;6.07;;;1.27;;
54517;SDS011;40423;53.176;6.002;2023-03-14T11:34:40;7.85;;;1.70;;
54517;SDS011;40423;53.176;6.002;2023-03-14T11:39:51;5.85;;;1.70;;
54517;SDS011;40423;53.176;6.002;2023-03-14T11:42:35;6.07;;;1.50;;
54517;SDS011;40423;53.176;6.002;2023-03-14T11:45:02;8.52;;;1.88;;
54517;SDS011;40423;53.176;6.002;2023-03-14T11:55:35;10.38;;;2.25;;
54517;SDS011;40423;53.176;6.002;2023-03-14T11:58:09;14.48;;;2.60;;
54517;SDS011;40423;53.176;6.002;2023-03-14T12:00:56;14.43;;;2.78;;
54517;SDS011;40423;53.176;6.002;2023-03-14T12:03:32;12.27;;;2.58;;
54517;SDS011;40423;53.176;6.002;2023-03-14T12:09:11;11.82;;;2.50;;
54517;SDS011;40423;53.176;6.002;2023-03-14T12:14:15;14.23;;;2.08;;
54517;SDS011;40423;53.176;6.002;2023-03-14T12:16:45;10.02;;;2.17;;
54517;SDS011;40423;53.176;6.002;2023-03-14T12:19:14;8.77;;;1.63;;
54517;SDS011;40423;53.176;6.002;2023-03-14T12:21:48;9.50;;;2.20;;
54517;SDS011;40423;53.176;6.002;2023-03-14T12:24:18;13.13;;;2.33;;
54517;SDS011;40423;53.176;6.002;2023-03-14T12:26:57;9.52;;;2.40;;
54517;SDS011;40423;53.176;6.002;2023-03-14T12:29:24;15.95;;;2.20;;
54517;SDS011;40423;53.176;6.002;2023-03-14T12:32:36;13.13;;;3.22;;
54517;SDS011;40423;53.176;6.002;2023-03-14T12:34:50;14.57;;;2.13;;
54517;SDS011;40423;53.176;6.002;2023-03-14T12:37:29;11.27;;;1.80;;
54517;SDS011;40423;53.176;6.002;2023-03-14T12:45:26;7.70;;;1.58;;
54517;SDS011;40423;53.176;6.002;2023-03-14T12:50:26;9.35;;;1.70;;
54517;SDS011;40423;53.176;6.002;2023-03-14T12:55:53;10.55;;;1.85;;
54517;SDS011;40423;53.176;6.002;2023-03-14T12:58:59;12.93;;;1.75;;
54517;SDS011;40423;53.176;6.002;2023-03-14T13:01:32;10.40;;;1.77;;
54517;SDS011;40423;53.176;6.002;2023-03-14T13:04:02;8.38;;;1.80;;
54517;SDS011;40423;53.176;6.002;2023-03-14T13:06:53;9.85;;;2.03;;
54517;SDS011;40423;53.176;6.002;2023-03-14T13:11:53;9.98;;;1.98;;
54517;SDS011;40423;53.176;6.002;2023-03-14T13:14:19;7.57;;;1.63;;
54517;SDS011;40423;53.176;6.002;2023-03-14T13:16:49;8.45;;;1.73;;
54517;SDS011;40423;53.176;6.002;2023-03-14T13:19:24;9.75;;;2.13;;
54517;SDS011;40423;53.176;6.002;2023-03-14T13:22:02;13.02;;;1.90;;
54517;SDS011;40423;53.176;6.002;2023-03-14T13:24:32;13.07;;;2.35;;
54517;SDS011;40423;53.176;6.002;2023-03-14T13:26:59;6.95;;;1.80;;
54517;SDS011;40423;53.176;6.002;2023-03-14T13:29:26;5.35;;;1.70;;
54517;SDS011;40423;53.176;6.002;2023-03-14T13:31:55;8.57;;;1.60;;
54517;SDS011;40423;53.176;6.002;2023-03-14T13:34:25;11.18;;;2.33;;
54517;SDS011;40423;53.176;6.002;2023-03-14T13:36:53;7.50;;;1.65;;
54517;SDS011;40423;53.176;6.002;2023-03-14T13:39:20;8.30;;;1.70;;
54517;SDS011;40423;53.176;6.002;2023-03-14T13:41:49;9.20;;;1.75;;
54517;SDS011;40423;53.176;6.002;2023-03-14T13:47:02;6.03;;;1.75;;
54517;SDS011;40423;53.176;6.002;2023-03-14T13:49:30;9.77;;;1.90;;
54517;SDS011;40423;53.176;6.002;2023-03-14T13:52:00;10.25;;;1.75;;
54517;SDS011;40423;53.176;6.002;2023-03-14T13:54:27;14.95;;;2.30;;
54517;SDS011;40423;53.176;6.002;2023-03-14T13:57:00;11.10;;;2.28;;
54517;SDS011;40423;53.176;6.002;2023-03-14T13:59:28;16.02;;;2.28;;
54517;SDS011;40423;53.176;6.002;2023-03-14T14:01:58;6.30;;;1.58;;
54517;SDS011;40423;53.176;6.002;2023-03-14T14:04:28;8.50;;;1.58;;
54517;SDS011;40423;53.176;6.002;2023-03-14T14:06:58;8.00;;;1.48;;
54517;SDS011;40423;53.176;6.002;2023-03-14T14:09:29;7.38;;;1.50;;
54517;SDS011;40423;53.176;6.002;2023-03-14T14:12:06;10.77;;;2.00;;
54517;SDS011;40423;53.176;6.002;2023-03-14T14:17:36;8.38;;;1.80;;
54517;SDS011;40423;53.176;6.002;2023-03-14T14:28:17;9.52;;;1.40;;
54517;SDS011;40423;53.176;6.002;2023-03-14T14:38:58;11.70;;;1.77;;
54517;SDS011;40423;53.176;6.002;2023-03-14T14:41:31;10.38;;;1.80;;
54517;SDS011;40423;53.176;6.002;2023-03-14T14:44:00;8.27;;;1.48;;
54517;SDS011;40423;53.176;6.002;2023-03-14T14:46:29;9.07;;;1.63;;
54517;SDS011;40423;53.176;6.002;2023-03-14T14:48:57;8.02;;;1.60;;
54517;SDS011;40423;53.176;6.002;2023-03-14T14:51:31;14.55;;;1.95;;
54517;SDS011;40423;53.176;6.002;2023-03-14T14:54:04;11.32;;;1.85;;
54517;SDS011;40423;53.176;6.002;2023-03-14T14:56:35;9.38;;;2.05;;
54517;SDS011;40423;53.176;6.002;2023-03-14T14:59:02;15.15;;;2.90;;
54517;SDS011;40423;53.176;6.002;2023-03-14T15:01:37;12.85;;;2.25;;
54517;SDS011;40423;53.176;6.002;2023-03-14T15:04:10;11.38;;;2.78;;
54517;SDS011;40423;53.176;6.002;2023-03-14T15:06:39;9.25;;;1.48;;
54517;SDS011;40423;53.176;6.002;2023-03-14T15:09:08;12.57;;;1.90;;
54517;SDS011;40423;53.176;6.002;2023-03-14T15:11:35;9.27;;;1.92;;
54517;SDS011;40423;53.176;6.002;2023-03-14T15:14:01;7.55;;;1.88;;
54517;SDS011;40423;53.176;6.002;2023-03-14T15:16:29;11.95;;;2.10;;
54517;SDS011;40423;53.176;6.002;2023-03-14T15:18:57;6.90;;;1.85;;
54517;SDS011;40423;53.176;6.002;2023-03-14T15:21:25;7.97;;;1.27;;
54517;SDS011;40423;53.176;6.002;2023-03-14T15:23:52;11.05;;;1.67;;
54517;SDS011;40423;53.176;6.002;2023-03-14T15:26:19;12.15;;;2.55;;
54517;SDS011;40423;53.176;6.002;2023-03-14T15:28:46;9.55;;;2.13;;
54517;SDS011;40423;53.176;6.002;2023-03-14T15:31:13;11.32;;;2.33;;
54517;SDS011;40423;53.176;6.002;2023-03-14T15:33:40;12.93;;;2.08;;
54517;SDS011;40423;53.176;6.002;2023-03-14T15:36:16;14.30;;;1.73;;
54517;SDS011;40423;53.176;6.002;2023-03-14T15:38:49;12.25;;;2.33;;
54517;SDS011;40423;53.176;6.002;2023-03-14T15:41:17;13.63;;;2.20;;
54517;SDS011;40423;53.176;6.002;2023-03-14T15:43:44;14.77;;;2.92;;
54517;SDS011;40423;53.176;6.002;2023-03-14T15:46:10;13.82;;;2.40;;
54517;SDS011;40423;53.176;6.002;2023-03-14T15:48:36;12.43;;;2.25;;
54517;SDS011;40423;53.176;6.002;2023-03-14T15:51:02;14.38;;;2.03;;
54517;SDS011;40423;53.176;6.002;2023-03-14T15:53:28;14.27;;;2.50;;
54517;SDS011;40423;53.176;6.002;2023-03-14T15:55:54;11.57;;;1.75;;
54517;SDS011;40423;53.176;6.002;2023-03-14T15:58:20;16.25;;;2.42;;
54517;SDS011;40423;53.176;6.002;2023-03-14T16:00:46;18.88;;;7.25;;
54517;SDS011;40423;53.176;6.002;2023-03-14T16:03:12;10.15;;;2.42;;
54517;SDS011;40423;53.176;6.002;2023-03-14T16:05:38;11.50;;;1.83;;
54517;SDS011;40423;53.176;6.002;2023-03-14T16:08:04;10.73;;;1.85;;
54517;SDS011;40423;53.176;6.002;2023-03-14T16:10:31;11.75;;;1.85;;
54517;SDS011;40423;53.176;6.002;2023-03-14T16:12:57;6.32;;;1.60;;
54517;SDS011;40423;53.176;6.002;2023-03-14T16:15:24;9.35;;;1.40;;
54517;SDS011;40423;53.176;6.002;2023-03-14T16:17:54;10.48;;;1.77;;
54517;SDS011;40423;53.176;6.002;2023-03-14T16:20:21;8.48;;;1.48;;
54517;SDS011;40423;53.176;6.002;2023-03-14T16:22:48;16.65;;;1.50;;